createdAt,value
2023-11-15T00:01:39.067Z,13.14
2023-11-15T00:04:10.029Z,13.20
2023-11-15T00:06:38.554Z,13.22
2023-11-15T00:09:07.619Z,13.24
2023-11-15T00:11:37.226Z,13.29
2023-11-15T00:14:05.630Z,13.36
2023-11-15T00:16:35.723Z,13.40
2023-11-15T00:19:08.155Z,13.46
2023-11-15T00:21:37.086Z,13.48
2023-11-15T00:24:06.183Z,13.45
2023-11-15T00:26:34.522Z,13.46
2023-11-15T00:29:06.279Z,13.46
2023-11-15T00:31:36.187Z,13.51
2023-11-15T00:34:06.484Z,13.51
2023-11-15T00:36:34.835Z,13.58
2023-11-15T00:39:05.527Z,13.55
2023-11-15T00:41:34.679Z,13.55
2023-11-15T00:44:04.588Z,13.53
2023-11-15T00:46:33.626Z,13.56
2023-11-15T00:49:03.404Z,13.56
2023-11-15T00:51:31.822Z,13.76
2023-11-15T00:54:00.113Z,13.85
2023-11-15T00:56:28.574Z,13.79
2023-11-15T00:58:57.977Z,13.81
2023-11-15T01:01:27.108Z,13.91
2023-11-15T01:03:59.616Z,14.02
2023-11-15T01:06:29.956Z,13.97
2023-11-15T01:08:58.264Z,14.02
2023-11-15T01:11:27.589Z,14.15
2023-11-15T01:13:56.654Z,14.05
2023-11-15T01:16:25.191Z,14.02
2023-11-15T01:18:54.590Z,13.97
2023-11-15T01:21:23.502Z,13.99
2023-11-15T01:23:53.338Z,13.93
2023-11-15T01:26:22.395Z,13.84
2023-11-15T01:28:51.509Z,13.78
2023-11-15T01:31:19.813Z,13.93
2023-11-15T01:33:48.367Z,14.02
2023-11-15T01:36:16.690Z,14.11
2023-11-15T01:38:45.486Z,14.13
2023-11-15T01:41:15.401Z,14.17
2023-11-15T01:43:43.723Z,14.22
2023-11-15T01:46:13.380Z,14.30
2023-11-15T01:48:41.926Z,14.26
2023-11-15T01:51:11.378Z,14.27
2023-11-15T01:53:41.214Z,14.35
2023-11-15T01:56:11.708Z,14.34
2023-11-15T01:58:41.437Z,14.41
2023-11-15T02:01:11.587Z,14.45
2023-11-15T02:03:39.955Z,14.52
2023-11-15T02:06:09.110Z,14.51
2023-11-15T02:08:37.503Z,14.54
2023-11-15T02:11:06.436Z,14.57
2023-11-15T02:13:34.954Z,14.56
2023-11-15T02:16:06.432Z,14.45
2023-11-15T02:18:35.782Z,14.47
2023-11-15T02:21:04.658Z,14.45
2023-11-15T02:23:33.045Z,14.42
2023-11-15T02:26:02.761Z,14.45
2023-11-15T02:28:31.014Z,14.45
2023-11-15T02:30:59.372Z,14.42
2023-11-15T02:33:27.749Z,14.48
2023-11-15T02:35:56.195Z,14.51
2023-11-15T02:38:24.486Z,14.56
2023-11-15T02:40:52.820Z,14.55
2023-11-15T02:43:22.604Z,14.58
2023-11-15T02:45:51.036Z,14.66
2023-11-15T02:48:19.404Z,14.63
2023-11-15T02:50:47.788Z,14.64
2023-11-15T02:53:16.179Z,14.63
2023-11-15T02:55:44.472Z,14.56
2023-11-15T02:58:13.236Z,14.61
2023-11-15T03:00:43.129Z,14.61
2023-11-15T03:03:14.128Z,14.60
2023-11-15T03:05:42.717Z,14.52
2023-11-15T03:08:11.111Z,14.48
2023-11-15T03:10:39.432Z,14.46
2023-11-15T03:13:09.703Z,14.46
2023-11-15T03:15:39.075Z,14.43
2023-11-15T03:18:09.048Z,14.37
2023-11-15T03:20:37.398Z,14.32
2023-11-15T03:23:05.823Z,14.27
2023-11-15T03:25:34.162Z,14.26
2023-11-15T03:28:02.534Z,14.23
2023-11-15T03:30:30.872Z,14.14
2023-11-15T03:32:59.247Z,14.17
2023-11-15T03:35:29.110Z,14.14
2023-11-15T03:37:57.454Z,14.12
2023-11-15T03:40:25.741Z,14.04
2023-11-15T03:42:54.618Z,13.99
2023-11-15T03:45:23.162Z,13.94
2023-11-15T03:47:51.556Z,13.91
2023-11-15T03:50:19.905Z,13.99
2023-11-15T03:52:49.692Z,14.03
2023-11-15T03:55:18.358Z,13.98
2023-11-15T03:57:47.941Z,14.01
2023-11-15T04:00:18.138Z,13.94
2023-11-15T04:02:46.867Z,13.88
2023-11-15T04:05:18.123Z,13.81
2023-11-15T04:07:46.834Z,13.79
2023-11-15T04:10:16.709Z,13.80
2023-11-15T04:12:47.016Z,13.81
2023-11-15T04:15:16.485Z,13.79
2023-11-15T04:17:44.927Z,13.80
2023-11-15T04:20:13.793Z,13.69
2023-11-15T04:22:42.128Z,13.76
2023-11-15T04:25:11.046Z,13.69
2023-11-15T04:27:40.755Z,13.73
2023-11-15T04:30:11.225Z,13.65
2023-11-15T04:32:40.723Z,13.73
2023-11-15T04:35:09.924Z,13.71
2023-11-15T04:37:38.242Z,13.76
2023-11-15T04:40:08.657Z,13.68
2023-11-15T04:42:37.529Z,13.69
2023-11-15T04:45:08.512Z,13.75
2023-11-15T04:47:36.957Z,13.81
2023-11-15T04:50:06.275Z,13.78
2023-11-15T04:52:34.594Z,13.73
2023-11-15T04:55:03.019Z,13.76
2023-11-15T04:57:31.391Z,13.79
2023-11-15T04:59:59.746Z,13.82
2023-11-15T05:02:29.679Z,13.81
2023-11-15T05:04:58.217Z,13.83
2023-11-15T05:07:27.208Z,13.86
2023-11-15T05:09:56.420Z,13.88
2023-11-15T05:12:26.431Z,13.95
2023-11-15T05:14:54.883Z,13.93
2023-11-15T05:17:23.235Z,13.98
2023-11-15T05:19:53.068Z,13.92
2023-11-15T05:22:21.472Z,13.95
2023-11-15T05:24:49.831Z,13.95
2023-11-15T05:27:19.195Z,13.93
2023-11-15T05:29:47.993Z,13.99
2023-11-15T05:32:16.320Z,14.07
2023-11-15T05:34:44.656Z,14.10
2023-11-15T05:37:14.396Z,14.12
2023-11-15T05:39:42.698Z,14.09
2023-11-15T05:42:11.218Z,14.13
2023-11-15T05:44:39.589Z,14.20
2023-11-15T05:47:07.989Z,14.17
2023-11-15T05:49:36.353Z,14.25
2023-11-15T05:52:05.043Z,14.23
2023-11-15T05:54:34.889Z,14.28
2023-11-15T05:57:04.229Z,14.27
2023-11-15T05:59:32.602Z,14.33
2023-11-15T06:02:00.982Z,14.47
2023-11-15T06:04:29.888Z,14.44
2023-11-15T06:07:00.266Z,14.48
2023-11-15T06:09:29.063Z,14.53
2023-11-15T06:11:58.917Z,14.54
2023-11-15T06:14:27.318Z,14.60
2023-11-15T06:16:55.711Z,14.77
2023-11-15T06:19:24.524Z,14.80
2023-11-15T06:21:52.934Z,14.89
2023-11-15T06:24:21.430Z,15.02
2023-11-15T06:26:53.301Z,15.12
2023-11-15T06:29:23.718Z,15.24
2023-11-15T06:31:53.403Z,15.38
2023-11-15T06:34:21.764Z,15.58
2023-11-15T06:36:50.079Z,15.63
2023-11-15T06:39:22.358Z,15.61
2023-11-15T06:41:51.518Z,15.64
2023-11-15T06:44:19.975Z,15.59
2023-11-15T06:46:50.242Z,15.62
2023-11-15T06:49:18.778Z,15.58
2023-11-15T06:51:50.773Z,15.67
2023-11-15T06:54:19.220Z,15.73
2023-11-15T06:56:49.929Z,15.71
2023-11-15T06:59:18.640Z,15.66
2023-11-15T07:01:50.846Z,15.55
2023-11-15T07:04:21.378Z,15.53
2023-11-15T07:06:49.923Z,15.42
2023-11-15T07:09:19.480Z,15.40
2023-11-15T07:11:48.551Z,15.38
2023-11-15T07:14:17.153Z,15.34
2023-11-15T07:16:49.043Z,15.32
2023-11-15T07:19:18.449Z,15.41
2023-11-15T07:21:48.236Z,15.45
2023-11-15T07:24:17.550Z,15.43
2023-11-15T07:26:45.858Z,15.53
2023-11-15T07:29:14.613Z,15.57
2023-11-15T07:31:43.463Z,15.63
2023-11-15T07:34:11.966Z,15.65
2023-11-15T07:36:40.220Z,15.72
2023-11-15T07:39:15.058Z,15.80
2023-11-15T07:41:44.072Z,15.75
2023-11-15T07:44:14.312Z,15.74
2023-11-15T07:46:43.883Z,15.63
2023-11-15T07:49:14.156Z,15.64
2023-11-15T07:51:42.552Z,15.70
2023-11-15T07:54:12.334Z,15.80
2023-11-15T07:56:40.774Z,15.85
2023-11-15T07:59:09.148Z,15.82
2023-11-15T08:01:39.250Z,15.86
2023-11-15T08:04:08.576Z,15.96
2023-11-15T08:06:37.973Z,15.89
2023-11-15T08:09:07.843Z,15.93
2023-11-15T08:11:37.810Z,16.04
2023-11-15T08:14:07.880Z,16.07
2023-11-15T08:16:36.935Z,16.26
2023-11-15T08:19:05.972Z,16.36
2023-11-15T08:21:34.347Z,16.52
2023-11-15T08:24:03.385Z,16.54
2023-11-15T08:26:31.679Z,16.45
2023-11-15T08:29:02.311Z,16.52
2023-11-15T08:31:30.552Z,16.45
2023-11-15T08:33:59.089Z,16.44
2023-11-15T08:36:27.464Z,16.71
2023-11-15T08:38:55.767Z,16.84
2023-11-15T08:41:25.465Z,17.05
2023-11-15T08:43:54.400Z,17.13
2023-11-15T08:46:27.940Z,17.04
2023-11-15T08:48:56.394Z,17.09
2023-11-15T08:51:24.834Z,16.92
2023-11-15T08:53:53.169Z,16.95
2023-11-15T08:56:21.661Z,16.73
2023-11-15T08:58:49.898Z,16.80
2023-11-15T09:01:18.521Z,16.84
2023-11-15T09:03:48.400Z,16.79
2023-11-15T09:06:17.051Z,16.78
2023-11-15T09:08:45.584Z,16.84
2023-11-15T09:11:15.893Z,16.68
2023-11-15T09:13:44.157Z,16.73
2023-11-15T09:16:13.932Z,16.72
2023-11-15T09:18:45.525Z,16.80
2023-11-15T09:21:15.267Z,16.89
2023-11-15T09:23:43.890Z,16.95
2023-11-15T09:26:19.757Z,17.09
2023-11-15T09:28:50.037Z,17.20
2023-11-15T09:31:18.760Z,17.21
2023-11-15T09:33:47.435Z,17.22
2023-11-15T09:36:17.478Z,17.45
2023-11-15T09:38:46.710Z,17.44
2023-11-15T09:41:18.920Z,17.58
2023-11-15T09:43:52.629Z,17.74
2023-11-15T09:46:21.335Z,17.68
2023-11-15T09:48:57.181Z,17.77
2023-11-15T09:51:33.648Z,18.04
2023-11-15T09:54:12.812Z,18.03
2023-11-15T09:56:47.679Z,17.95
2023-11-15T09:59:16.690Z,18.14
2023-11-15T10:01:46.436Z,18.17
2023-11-15T10:04:25.338Z,18.27
2023-11-15T10:07:03.769Z,18.27
2023-11-15T10:09:40.636Z,18.14
2023-11-15T10:12:10.364Z,17.93
2023-11-15T10:14:53.684Z,17.77
2023-11-15T10:17:22.564Z,17.82
2023-11-15T10:19:51.131Z,17.80
2023-11-15T10:22:20.929Z,17.72
2023-11-15T10:25:07.237Z,17.74
2023-11-15T10:27:38.710Z,17.81
2023-11-15T10:30:14.426Z,17.76
2023-11-15T10:32:43.158Z,17.78
2023-11-15T10:35:12.241Z,17.87
2023-11-15T10:37:53.350Z,17.97
2023-11-15T10:40:27.253Z,18.19
2023-11-15T10:42:56.737Z,18.25
2023-11-15T10:45:29.006Z,18.35
2023-11-15T10:48:00.158Z,18.35
2023-11-15T10:50:32.052Z,18.35
2023-11-15T10:53:02.258Z,18.37
2023-11-15T10:55:31.253Z,18.38
2023-11-15T10:58:03.603Z,18.54
2023-11-15T11:00:32.612Z,18.85
2023-11-15T11:03:01.060Z,19.00
2023-11-15T11:05:46.482Z,19.10
2023-11-15T11:08:27.878Z,19.19
2023-11-15T11:11:07.128Z,19.23
2023-11-15T11:13:35.724Z,19.32
2023-11-15T11:16:36.263Z,19.44
2023-11-15T11:19:18.309Z,19.39
2023-11-15T11:22:13.356Z,19.48
2023-11-15T11:24:47.430Z,19.78
2023-11-15T11:27:35.053Z,19.90
2023-11-15T11:30:20.750Z,19.85
2023-11-15T11:32:51.845Z,19.92
2023-11-15T11:35:32.322Z,19.79
2023-11-15T11:38:02.288Z,19.69
2023-11-15T11:40:34.476Z,19.67
2023-11-15T11:43:24.530Z,19.56
2023-11-15T11:45:55.162Z,19.33
2023-11-15T11:48:25.578Z,19.18
2023-11-15T11:50:56.312Z,19.03
2023-11-15T11:53:25.132Z,18.89
2023-11-15T11:55:56.548Z,18.84
2023-11-15T11:58:27.583Z,18.80
2023-11-15T12:01:03.512Z,18.61
2023-11-15T12:03:32.839Z,18.65
2023-11-15T12:06:09.004Z,18.49
2023-11-15T12:08:38.771Z,18.45
2023-11-15T12:11:11.733Z,18.44
2023-11-15T12:13:50.058Z,18.33
2023-11-15T12:16:20.361Z,18.21
2023-11-15T12:19:05.167Z,18.19
2023-11-15T12:21:35.002Z,18.06
2023-11-15T12:24:06.983Z,18.02
2023-11-15T12:26:49.748Z,18.00
2023-11-15T12:29:21.167Z,17.96
2023-11-15T12:31:51.704Z,17.84
2023-11-15T12:34:21.549Z,17.78
2023-11-15T12:36:51.445Z,17.56
2023-11-15T12:39:23.227Z,17.56
2023-11-15T12:41:58.578Z,17.44
2023-11-15T12:44:26.969Z,17.27
2023-11-15T12:46:59.569Z,17.23
2023-11-15T12:49:29.212Z,17.12
2023-11-15T12:51:57.490Z,17.13
2023-11-15T12:54:25.750Z,17.08
2023-11-15T12:57:14.291Z,17.16
2023-11-15T12:59:44.276Z,17.08
2023-11-15T13:02:19.218Z,16.89
2023-11-15T13:04:49.265Z,16.85
2023-11-15T13:07:17.949Z,16.78
2023-11-15T13:09:46.876Z,16.56
2023-11-15T13:12:25.997Z,16.59
2023-11-15T13:14:56.043Z,16.61
2023-11-15T13:17:28.389Z,16.55
2023-11-15T13:20:01.500Z,16.53
2023-11-15T13:22:32.849Z,16.48
2023-11-15T13:25:01.319Z,16.41
2023-11-15T13:27:31.339Z,16.29
2023-11-15T13:30:00.533Z,16.26
2023-11-15T13:32:31.290Z,16.23
2023-11-15T13:35:00.308Z,16.22
2023-11-15T13:37:29.537Z,16.23
2023-11-15T13:39:57.923Z,16.15
2023-11-15T13:42:29.435Z,16.21
2023-11-15T13:44:59.986Z,16.19
2023-11-15T13:47:29.868Z,16.20
2023-11-15T13:49:58.595Z,16.19
2023-11-15T13:52:26.874Z,16.12
2023-11-15T13:54:55.229Z,16.05
2023-11-15T13:57:23.583Z,16.01
2023-11-15T13:59:52.086Z,15.94
2023-11-15T14:02:24.934Z,15.98
2023-11-15T14:04:53.396Z,15.97
2023-11-15T14:07:22.314Z,15.80
2023-11-15T14:09:50.689Z,15.72
2023-11-15T14:12:19.486Z,15.69
2023-11-15T14:14:47.834Z,15.59
2023-11-15T14:17:17.630Z,15.54
2023-11-15T14:19:47.399Z,15.57
2023-11-15T14:22:15.673Z,15.49
2023-11-15T14:24:44.145Z,15.44
2023-11-15T14:27:16.527Z,15.27
2023-11-15T14:29:45.021Z,15.23
2023-11-15T14:32:17.357Z,15.12
2023-11-15T14:34:47.280Z,15.10
2023-11-15T14:37:16.315Z,14.97
2023-11-15T14:39:44.618Z,14.97
2023-11-15T14:42:13.615Z,14.97
2023-11-15T14:44:42.571Z,14.90
2023-11-15T14:47:11.145Z,14.81
2023-11-15T14:49:39.594Z,14.89
2023-11-15T14:52:15.507Z,14.84
2023-11-15T14:54:47.065Z,14.81
2023-11-15T14:57:15.762Z,14.83
2023-11-15T14:59:45.858Z,14.69
2023-11-15T15:02:14.794Z,14.76
2023-11-15T15:04:46.606Z,14.70
2023-11-15T15:07:18.335Z,14.68
2023-11-15T15:09:47.428Z,14.67
2023-11-15T15:12:16.063Z,14.70
2023-11-15T15:14:44.634Z,14.64
2023-11-15T15:17:23.278Z,14.66
2023-11-15T15:19:54.306Z,14.64
2023-11-15T15:22:27.683Z,14.68
2023-11-15T15:24:56.221Z,14.67
2023-11-15T15:27:28.520Z,14.64
2023-11-15T15:29:59.485Z,14.67
2023-11-15T15:32:28.818Z,14.73
2023-11-15T15:34:58.528Z,14.72
2023-11-15T15:37:29.505Z,14.67
2023-11-15T15:39:58.682Z,14.74
2023-11-15T15:42:27.028Z,14.74
2023-11-15T15:44:55.761Z,14.73
2023-11-15T15:47:25.084Z,14.70
2023-11-15T15:49:56.466Z,14.68
2023-11-15T15:52:26.401Z,14.60
2023-11-15T15:54:57.249Z,14.67
2023-11-15T15:57:25.592Z,14.74
2023-11-15T15:59:53.968Z,14.70
2023-11-15T16:02:22.549Z,14.70
2023-11-15T16:04:51.852Z,14.68
2023-11-15T16:07:20.430Z,14.70
2023-11-15T16:09:48.788Z,14.68
2023-11-15T16:12:18.674Z,14.68
2023-11-15T16:14:47.367Z,14.64
2023-11-15T16:17:15.770Z,14.63
2023-11-15T16:19:44.584Z,14.62
2023-11-15T16:22:13.056Z,14.67
2023-11-15T16:24:42.529Z,14.62
2023-11-15T16:27:15.607Z,14.71
2023-11-15T16:29:50.293Z,14.76
2023-11-15T16:32:18.759Z,14.70
2023-11-15T16:34:48.251Z,14.73
2023-11-15T16:37:18.269Z,14.69
2023-11-15T16:39:47.754Z,14.67
2023-11-15T16:42:18.389Z,14.65
2023-11-15T16:44:47.124Z,14.64
2023-11-15T16:47:16.885Z,14.68
2023-11-15T16:49:45.245Z,14.67
2023-11-15T16:52:13.489Z,14.66
2023-11-15T16:54:42.736Z,14.67
2023-11-15T16:57:11.234Z,14.74
2023-11-15T16:59:39.623Z,14.69
2023-11-15T17:02:08.408Z,14.65
2023-11-15T17:04:38.377Z,14.57
2023-11-15T17:07:06.740Z,14.56
2023-11-15T17:09:37.153Z,14.58
2023-11-15T17:12:06.441Z,14.57
2023-11-15T17:14:34.805Z,14.61
2023-11-15T17:17:05.612Z,14.62
2023-11-15T17:19:34.105Z,14.56
2023-11-15T17:22:04.058Z,14.54
2023-11-15T17:24:32.371Z,14.56
2023-11-15T17:27:00.830Z,14.58
2023-11-15T17:29:29.164Z,14.59
2023-11-15T17:31:58.105Z,14.57
2023-11-15T17:34:27.516Z,14.49
2023-11-15T17:36:55.966Z,14.57
2023-11-15T17:39:26.629Z,14.51
2023-11-15T17:41:57.053Z,14.55
2023-11-15T17:44:25.752Z,14.56
2023-11-15T17:46:54.284Z,14.50
2023-11-15T17:49:22.742Z,14.51
2023-11-15T17:51:51.170Z,14.49
2023-11-15T17:54:22.605Z,14.44
2023-11-15T17:56:52.459Z,14.35
2023-11-15T17:59:21.022Z,14.42
2023-11-15T18:01:49.653Z,14.38
2023-11-15T18:04:18.213Z,14.43
2023-11-15T18:06:46.966Z,14.39
2023-11-15T18:09:16.534Z,14.45
2023-11-15T18:11:44.874Z,14.43
2023-11-15T18:14:14.757Z,14.38
2023-11-15T18:16:43.733Z,14.35
2023-11-15T18:19:13.291Z,14.28
2023-11-15T18:21:41.654Z,14.24
2023-11-15T18:24:11.024Z,14.20
2023-11-15T18:26:42.948Z,14.17
2023-11-15T18:29:11.929Z,14.18
2023-11-15T18:31:42.584Z,14.21
2023-11-15T18:34:12.657Z,14.19
2023-11-15T18:36:44.355Z,14.23
2023-11-15T18:39:15.673Z,14.22
2023-11-15T18:41:45.737Z,14.22
2023-11-15T18:44:17.282Z,14.18
2023-11-15T18:46:50.339Z,14.12
2023-11-15T18:49:20.450Z,13.99
2023-11-15T18:51:50.008Z,14.02
2023-11-15T18:54:18.679Z,13.99
2023-11-15T18:56:47.645Z,14.05
2023-11-15T18:59:16.177Z,14.07
2023-11-15T19:01:48.329Z,14.05
2023-11-15T19:04:17.690Z,13.99
2023-11-15T19:06:48.313Z,13.96
2023-11-15T19:09:20.643Z,13.99
2023-11-15T19:11:49.192Z,14.02
2023-11-15T19:14:17.499Z,14.01
2023-11-15T19:16:47.372Z,13.97
2023-11-15T19:19:16.607Z,13.91
2023-11-15T19:21:47.187Z,13.88
2023-11-15T19:24:16.797Z,13.86
2023-11-15T19:26:46.022Z,13.88
2023-11-15T19:29:14.424Z,13.88
2023-11-15T19:31:43.339Z,13.87
2023-11-15T19:34:14.028Z,13.81
2023-11-15T19:36:42.330Z,13.80
2023-11-15T19:39:11.830Z,13.86
2023-11-15T19:41:40.901Z,13.80
2023-11-15T19:44:11.153Z,13.77
2023-11-15T19:46:39.919Z,13.79
2023-11-15T19:49:08.441Z,13.66
2023-11-15T19:51:38.909Z,13.67
2023-11-15T19:54:08.828Z,13.69
2023-11-15T19:56:37.441Z,13.65
2023-11-15T19:59:06.018Z,13.59
2023-11-15T20:01:33.382Z,13.54
2023-11-15T20:04:05.151Z,13.60
2023-11-15T20:06:34.185Z,13.56
2023-11-15T20:09:04.101Z,13.53
2023-11-15T20:11:32.432Z,13.52
2023-11-15T20:14:01.189Z,13.51
2023-11-15T20:16:30.013Z,13.48
2023-11-15T20:18:58.478Z,13.38
2023-11-15T20:21:26.866Z,13.33
2023-11-15T20:23:55.607Z,13.27
2023-11-15T20:26:25.357Z,13.28
2023-11-15T20:28:53.743Z,13.28
2023-11-15T20:31:22.546Z,13.21
2023-11-15T20:33:51.296Z,13.12
2023-11-15T20:36:19.858Z,13.10
2023-11-15T20:38:48.167Z,13.19
2023-11-15T20:41:16.560Z,13.16
2023-11-15T20:43:46.658Z,13.15
2023-11-15T20:46:18.440Z,13.10
2023-11-15T20:48:48.553Z,13.11
2023-11-15T20:51:17.480Z,13.19
2023-11-15T20:53:46.972Z,13.19
2023-11-15T20:56:15.289Z,13.21
2023-11-15T20:58:43.541Z,13.19
2023-11-15T21:01:13.485Z,13.19
2023-11-15T21:03:42.147Z,13.21
2023-11-15T21:06:11.386Z,13.20
2023-11-15T21:08:39.781Z,13.17
2023-11-15T21:11:08.879Z,13.02
2023-11-15T21:13:38.180Z,13.10
2023-11-15T21:16:10.439Z,13.03
2023-11-15T21:18:41.162Z,13.11
2023-11-15T21:21:13.029Z,13.00
2023-11-15T21:23:43.145Z,13.01
2023-11-15T21:26:11.518Z,13.04
2023-11-15T21:28:42.002Z,12.92
2023-11-15T21:31:10.617Z,12.94
2023-11-15T21:33:40.429Z,12.96
2023-11-15T21:36:10.284Z,12.93
2023-11-15T21:38:38.770Z,12.93
2023-11-15T21:41:08.341Z,12.89
2023-11-15T21:43:36.703Z,12.92
2023-11-15T21:46:05.200Z,12.91
2023-11-15T21:48:34.764Z,12.90
2023-11-15T21:51:04.824Z,12.92
2023-11-15T21:53:34.156Z,12.85
2023-11-15T21:56:03.899Z,12.90
2023-11-15T21:58:32.455Z,12.90
2023-11-15T22:01:00.744Z,12.81
2023-11-15T22:03:29.164Z,12.76
2023-11-15T22:05:57.959Z,12.83
2023-11-15T22:08:30.967Z,12.79
2023-11-15T22:11:00.724Z,12.85
2023-11-15T22:13:29.236Z,12.76
2023-11-15T22:15:57.795Z,12.80
2023-11-15T22:18:26.281Z,12.82
2023-11-15T22:20:55.559Z,12.82
2023-11-15T22:23:23.965Z,12.83
2023-11-15T22:25:53.744Z,12.76
2023-11-15T22:28:22.182Z,12.81
2023-11-15T22:30:50.799Z,12.70
2023-11-15T22:33:19.417Z,12.72
2023-11-15T22:35:49.904Z,12.80
2023-11-15T22:38:18.411Z,12.82
2023-11-15T22:40:46.709Z,12.71
2023-11-15T22:43:16.379Z,12.70
2023-11-15T22:45:44.724Z,12.64
2023-11-15T22:48:13.413Z,12.63
2023-11-15T22:50:43.018Z,12.59
2023-11-15T22:53:11.450Z,12.59
2023-11-15T22:55:39.910Z,12.57
2023-11-15T22:58:08.667Z,12.59
2023-11-15T23:00:38.402Z,12.47
2023-11-15T23:03:10.665Z,12.42
2023-11-15T23:05:40.355Z,12.51
2023-11-15T23:08:09.190Z,12.49
2023-11-15T23:10:38.669Z,12.56
2023-11-15T23:13:07.088Z,12.40
2023-11-15T23:15:35.473Z,12.41
2023-11-15T23:18:06.059Z,12.42
2023-11-15T23:20:37.107Z,12.36
2023-11-15T23:23:06.102Z,12.35
2023-11-15T23:25:34.648Z,12.45
2023-11-15T23:28:05.492Z,12.46
2023-11-15T23:30:36.128Z,12.46
2023-11-15T23:33:06.126Z,12.45
2023-11-15T23:35:34.577Z,12.40
2023-11-15T23:38:03.063Z,12.41
2023-11-15T23:40:31.851Z,12.34
2023-11-15T23:43:00.129Z,12.41
2023-11-15T23:45:29.392Z,12.36
2023-11-15T23:47:57.923Z,12.24
2023-11-15T23:50:27.836Z,12.30
2023-11-15T23:52:56.287Z,12.34
2023-11-15T23:55:24.817Z,12.35
2023-11-15T23:57:54.508Z,12.34
